Terminal Aerodrome Forecast
Issued by NWS

Current Version | Previous Version | Graphics & Text | Print | Product List | Glossary On
Versions: 1 2 3 4 5 6 7 8 9 10 11 12 13 14 15 16 17 18 19 20 21 22 23 24 25 26 27 28 29
546
FTUS41 KRNK 262327
TAFLWB
TAF
KLWB 262327Z 2700/2724 22003KT P6SM SKC
     FM270900 VRB03KT P6SM FEW250 WS020/19035KT
     FM271900 17010KT 6SM -SHRA BKN050
     FM272200 20006KT P6SM BKN040=

USA.gov is the U.S. government's official web portal to all federal, state and local government web resources and services.